Coatsville, Missouri
Current Conditions -  °F | °C
As of 11:30 AM on Monday 22 Dec 2014 (Local Time) from KTVK Reporting Station
Light Rain Light Rain  
Wind Chill: 33°   Ceiling: 500
Heat Index: 39°   Visibility: 10mi
Dew Point: 39°   Wind: 9mph
Humidity: 100%   Direction: 140°SE
Pressure: 29.59"   Gusts: NA
Location:  40.59°N, 92.63°W
Report Text: KTVK 221730Z AUTO 14008KT 10SM -RA OVC005 04/04 A2959 RMK AO2
Loading
Personal Weather Stations






























Interactive Weather Map New forecast layout! Learn more

10-Day Weather Forecast

Advertisements
Track Severe Weather on mobile